createdAt,value
2023-04-18T00:01:42.490Z,8.02
2023-04-18T00:04:09.054Z,7.50
2023-04-18T00:06:36.365Z,7.00
2023-04-18T00:09:03.262Z,8.00
2023-04-18T00:11:29.850Z,7.45
2023-04-18T00:13:56.740Z,6.95
2023-04-18T00:16:24.214Z,6.85
2023-04-18T00:18:51.953Z,6.80
2023-04-18T00:21:18.400Z,6.85
2023-04-18T00:23:45.477Z,6.70
2023-04-18T00:26:12.004Z,6.72
2023-04-18T00:28:38.385Z,6.60
2023-04-18T00:31:04.916Z,6.70
2023-04-18T00:33:31.298Z,6.82
2023-04-18T00:35:57.979Z,6.00
2023-04-18T00:38:24.444Z,5.65
2023-04-18T00:40:50.804Z,6.18
2023-04-18T00:43:17.182Z,5.68
2023-04-18T00:45:44.163Z,6.03
2023-04-18T00:48:10.833Z,6.47
2023-04-18T00:50:37.766Z,5.47
2023-04-18T00:53:04.472Z,5.47
2023-04-18T00:55:31.364Z,5.40
2023-04-18T00:57:57.844Z,5.78
2023-04-18T01:00:24.430Z,6.03
2023-04-18T01:02:50.950Z,5.28
2023-04-18T01:05:18.577Z,5.70
2023-04-18T01:07:44.988Z,5.63
2023-04-18T01:10:11.428Z,5.65
2023-04-18T01:12:39.291Z,5.35
2023-04-18T01:15:06.345Z,5.47
2023-04-18T01:17:32.915Z,5.20
2023-04-18T01:19:59.224Z,5.18
2023-04-18T01:22:25.823Z,5.50
2023-04-18T01:24:52.229Z,5.40
2023-04-18T01:27:18.557Z,4.70
2023-04-18T01:29:44.944Z,5.32
2023-04-18T01:32:11.346Z,5.65
2023-04-18T01:34:37.806Z,5.53
2023-04-18T01:37:04.187Z,5.15
2023-04-18T01:39:30.569Z,5.47
2023-04-18T01:41:57.021Z,4.85
2023-04-18T01:44:28.569Z,5.55
2023-04-18T01:46:54.956Z,5.50
2023-04-18T01:49:21.413Z,5.30
2023-04-18T01:51:47.753Z,4.77
2023-04-18T01:54:14.304Z,5.10
2023-04-18T01:56:40.926Z,5.05
2023-04-18T01:59:07.269Z,5.40
2023-04-18T02:01:33.669Z,5.60
2023-04-18T02:04:00.419Z,6.00
2023-04-18T02:06:26.900Z,5.22
2023-04-18T02:08:53.212Z,5.15
2023-04-18T02:11:19.530Z,5.28
2023-04-18T02:13:45.897Z,6.38
2023-04-18T02:16:13.044Z,5.77
2023-04-18T02:18:39.449Z,5.22
2023-04-18T02:21:05.832Z,5.32
2023-04-18T02:23:32.263Z,5.88
2023-04-18T02:25:58.609Z,5.82
2023-04-18T02:28:24.998Z,5.63
2023-04-18T02:30:51.348Z,5.20
2023-04-18T02:33:17.778Z,5.63
2023-04-18T02:35:44.072Z,5.60
2023-04-18T02:38:10.438Z,5.63
2023-04-18T02:40:36.741Z,5.85
2023-04-18T02:43:03.162Z,5.78
2023-04-18T02:45:29.494Z,5.18
2023-04-18T02:47:56.712Z,5.80
2023-04-18T02:50:24.517Z,5.50
2023-04-18T02:52:51.028Z,5.60
2023-04-18T02:55:17.425Z,5.20
2023-04-18T02:57:43.849Z,5.85
2023-04-18T03:00:11.405Z,5.30
2023-04-18T03:02:37.883Z,5.78
2023-04-18T03:05:05.216Z,5.75
2023-04-18T03:07:31.745Z,6.28
2023-04-18T03:09:58.129Z,5.10
2023-04-18T03:12:24.582Z,5.13
2023-04-18T03:14:50.926Z,6.20
2023-04-18T03:17:17.403Z,5.97
2023-04-18T03:19:43.770Z,5.68
2023-04-18T03:22:10.074Z,5.60
2023-04-18T03:24:36.426Z,6.05
2023-04-18T03:27:02.754Z,5.72
2023-04-18T03:29:29.775Z,6.30
2023-04-18T03:31:56.191Z,5.82
2023-04-18T03:34:22.560Z,5.82
2023-04-18T03:36:48.939Z,6.32
2023-04-18T03:39:15.323Z,6.50
2023-04-18T03:41:41.604Z,6.40
2023-04-18T03:44:07.973Z,5.93
2023-04-18T03:46:34.922Z,6.70
2023-04-18T03:49:01.418Z,5.63
2023-04-18T03:51:32.312Z,6.20
2023-04-18T03:53:58.590Z,6.22
2023-04-18T03:56:25.306Z,5.95
2023-04-18T03:58:51.689Z,6.35
2023-04-18T04:01:18.074Z,5.93
2023-04-18T04:03:44.539Z,6.28
2023-04-18T04:06:11.030Z,6.15
2023-04-18T04:08:37.510Z,6.32
2023-04-18T04:11:03.903Z,6.28
2023-04-18T04:13:30.271Z,6.40
2023-04-18T04:15:56.953Z,6.50
2023-04-18T04:18:23.384Z,6.57
2023-04-18T04:20:49.836Z,6.50
2023-04-18T04:23:16.249Z,5.90
2023-04-18T04:25:42.839Z,6.40
2023-04-18T04:28:09.169Z,6.50
2023-04-18T04:30:35.539Z,7.20
2023-04-18T04:33:02.071Z,6.75
2023-04-18T04:35:28.542Z,7.45
2023-04-18T04:37:54.870Z,7.10
2023-04-18T04:40:21.309Z,6.78
2023-04-18T04:42:47.632Z,6.55
2023-04-18T04:45:14.063Z,7.15
2023-04-18T04:47:40.425Z,7.57
2023-04-18T04:50:07.633Z,6.75
2023-04-18T04:52:33.966Z,6.35
2023-04-18T04:55:00.356Z,6.53
2023-04-18T04:57:26.690Z,6.78
2023-04-18T04:59:53.027Z,6.78
2023-04-18T05:02:19.465Z,6.38
2023-04-18T05:04:45.842Z,6.72
2023-04-18T05:07:12.203Z,6.13
2023-04-18T05:09:38.582Z,6.50
2023-04-18T05:12:05.152Z,6.82
2023-04-18T05:14:31.587Z,6.85
2023-04-18T05:16:58.137Z,6.13
2023-04-18T05:19:24.618Z,7.20
2023-04-18T05:21:51.048Z,6.65
2023-04-18T05:24:17.537Z,6.00
2023-04-18T05:26:43.985Z,6.88
2023-04-18T05:29:10.366Z,6.53
2023-04-18T05:31:36.750Z,6.60
2023-04-18T05:34:03.258Z,5.53
2023-04-18T05:36:29.613Z,4.80
2023-04-18T05:38:56.072Z,7.03
2023-04-18T05:41:22.434Z,6.45
2023-04-18T05:44:01.806Z,7.00
2023-04-18T05:46:31.079Z,7.10
2023-04-18T05:48:57.493Z,6.70
2023-04-18T05:51:23.868Z,6.28
2023-04-18T05:53:50.234Z,6.82
2023-04-18T05:56:16.708Z,6.85
2023-04-18T05:58:43.192Z,7.63
2023-04-18T06:01:09.586Z,6.72
2023-04-18T06:03:36.118Z,7.18
2023-04-18T06:06:02.764Z,6.57
2023-04-18T06:08:29.074Z,6.72
2023-04-18T06:10:55.423Z,6.38
2023-04-18T06:13:21.727Z,7.07
2023-04-18T06:15:48.128Z,6.72
2023-04-18T06:18:14.506Z,7.00
2023-04-18T06:20:41.149Z,6.47
2023-04-18T06:23:07.514Z,7.60
2023-04-18T06:25:33.801Z,6.25
2023-04-18T06:28:00.146Z,6.57
2023-04-18T06:30:26.469Z,5.68
2023-04-18T06:32:52.842Z,6.25
2023-04-18T06:35:20.214Z,6.80
2023-04-18T06:37:46.667Z,6.25
2023-04-18T06:40:13.388Z,6.45
2023-04-18T06:42:39.748Z,5.57
2023-04-18T06:45:07.030Z,5.97
2023-04-18T06:47:33.439Z,6.78
2023-04-18T06:49:59.826Z,6.78
2023-04-18T06:52:26.225Z,6.57
2023-04-18T06:54:52.550Z,6.03
2023-04-18T06:57:18.986Z,6.63
2023-04-18T06:59:45.300Z,6.45
2023-04-18T07:02:11.790Z,6.82
2023-04-18T07:04:38.284Z,6.63
2023-04-18T07:07:04.784Z,6.95
2023-04-18T07:09:31.713Z,7.18
2023-04-18T07:11:58.214Z,6.07
2023-04-18T07:14:25.298Z,6.57
2023-04-18T07:16:51.906Z,6.60
2023-04-18T07:19:18.311Z,6.60
2023-04-18T07:21:44.655Z,6.50
2023-04-18T07:24:11.847Z,5.68
2023-04-18T07:26:38.684Z,6.03
2023-04-18T07:29:05.124Z,5.60
2023-04-18T07:31:32.036Z,4.97
2023-04-18T07:33:58.639Z,6.30
2023-04-18T07:36:25.076Z,6.45
2023-04-18T07:38:51.363Z,5.32
2023-04-18T07:41:17.875Z,4.95
2023-04-18T07:43:44.266Z,5.85
2023-04-18T07:46:10.870Z,5.43
2023-04-18T07:48:37.372Z,5.53
2023-04-18T07:51:03.878Z,5.93
2023-04-18T07:53:30.496Z,5.85
2023-04-18T07:55:56.939Z,5.60
2023-04-18T07:58:23.303Z,6.00
2023-04-18T08:00:49.671Z,5.45
2023-04-18T08:03:16.373Z,5.47
2023-04-18T08:05:43.133Z,5.55
2023-04-18T08:08:11.555Z,5.50
2023-04-18T08:10:38.165Z,6.40
2023-04-18T08:13:04.755Z,6.05
2023-04-18T08:15:31.190Z,6.53
2023-04-18T08:17:58.604Z,7.18
2023-04-18T08:20:25.067Z,6.28
2023-04-18T08:25:23.792Z,6.55
2023-04-18T08:27:50.190Z,5.78
2023-04-18T08:30:16.646Z,6.20
2023-04-18T08:32:43.113Z,5.43
2023-04-18T08:35:09.679Z,5.43
2023-04-18T08:37:35.984Z,6.13
2023-04-18T08:40:03.425Z,6.55
2023-04-18T08:42:30.510Z,6.20
2023-04-18T08:44:58.880Z,6.00
2023-04-18T08:47:29.282Z,5.80
2023-04-18T08:49:56.676Z,6.95
2023-04-18T08:52:23.876Z,6.47
2023-04-18T08:54:50.515Z,6.50
2023-04-18T08:57:18.608Z,6.85
2023-04-18T08:59:47.194Z,6.63
2023-04-18T09:02:15.885Z,6.30
2023-04-18T09:04:44.794Z,6.55
2023-04-18T09:07:12.860Z,6.35
2023-04-18T09:09:48.274Z,7.90
2023-04-18T09:12:17.516Z,6.97
2023-04-18T09:14:46.876Z,6.95
2023-04-18T09:17:15.225Z,6.55
2023-04-18T09:19:46.164Z,6.15
2023-04-18T09:22:13.050Z,7.63
2023-04-18T09:24:39.764Z,6.90
2023-04-18T09:27:12.063Z,7.05
2023-04-18T09:29:46.210Z,6.88
2023-04-18T09:32:29.624Z,6.35
2023-04-18T09:35:02.672Z,6.68
2023-04-18T09:37:30.578Z,7.20
2023-04-18T09:39:56.866Z,7.95
2023-04-18T09:42:23.202Z,6.53
2023-04-18T09:45:01.392Z,6.70
2023-04-18T09:47:28.264Z,6.82
2023-04-18T09:49:54.629Z,6.38
2023-04-18T09:52:22.728Z,6.15
2023-04-18T09:54:56.485Z,7.32
2023-04-18T09:57:27.114Z,6.30
2023-04-18T10:00:09.664Z,6.32
2023-04-18T10:02:51.473Z,6.70
2023-04-18T10:05:21.123Z,6.97
2023-04-18T10:07:50.076Z,6.63
2023-04-18T10:10:17.041Z,6.30
2023-04-18T10:12:44.305Z,6.55
2023-04-18T10:15:11.583Z,7.18
2023-04-18T10:18:09.406Z,7.10
2023-04-18T10:20:36.122Z,7.05
2023-04-18T10:23:30.838Z,6.57
2023-04-18T10:26:00.999Z,6.63
2023-04-18T10:28:47.825Z,7.05
2023-04-18T10:31:16.548Z,7.60
2023-04-18T10:34:00.813Z,6.55
2023-04-18T10:36:30.801Z,6.65
2023-04-18T10:39:01.926Z,6.30
2023-04-18T10:41:30.725Z,6.85
2023-04-18T10:44:08.041Z,6.35
2023-04-18T10:46:39.530Z,6.03
2023-04-18T10:49:23.395Z,9.05
2023-04-18T10:51:53.489Z,6.57
2023-04-18T10:54:28.819Z,5.10
2023-04-18T10:56:56.929Z,5.45
2023-04-18T10:59:24.092Z,5.22
2023-04-18T11:01:56.437Z,6.40
2023-04-18T11:04:24.087Z,6.90
2023-04-18T11:06:51.914Z,7.75
2023-04-18T11:09:18.320Z,7.63
2023-04-18T11:11:44.735Z,7.22
2023-04-18T11:14:11.220Z,7.40
2023-04-18T11:16:37.787Z,7.30
2023-04-18T11:19:22.996Z,6.35
2023-04-18T11:21:49.458Z,7.45
2023-04-18T11:24:23.260Z,8.50
2023-04-18T11:26:49.753Z,8.10
2023-04-18T11:29:17.806Z,7.40
2023-04-18T11:31:54.574Z,6.60
2023-04-18T11:34:29.668Z,7.40
2023-04-18T11:36:56.210Z,6.75
2023-04-18T11:39:22.937Z,5.35
2023-04-18T11:41:50.663Z,6.00
2023-04-18T11:44:18.287Z,6.05
2023-04-18T11:46:44.579Z,5.80
2023-04-18T11:49:30.315Z,7.13
2023-04-18T11:51:57.181Z,6.32
2023-04-18T11:54:43.692Z,6.38
2023-04-18T11:57:39.864Z,7.00
2023-04-18T12:00:06.743Z,7.50
2023-04-18T12:02:45.294Z,7.07
2023-04-18T12:05:12.877Z,6.13
2023-04-18T12:07:45.013Z,7.47
2023-04-18T12:10:20.351Z,8.55
2023-04-18T12:12:57.910Z,8.13
2023-04-18T12:15:26.236Z,8.80
2023-04-18T12:17:52.830Z,7.85
2023-04-18T12:20:19.470Z,8.00
2023-04-18T12:22:47.617Z,8.00
2023-04-18T12:25:13.871Z,8.10
2023-04-18T12:27:50.586Z,8.52
2023-04-18T12:30:17.176Z,7.15
2023-04-18T12:32:43.488Z,7.50
2023-04-18T12:35:09.800Z,7.22
2023-04-18T12:37:36.101Z,7.35
2023-04-18T12:40:02.584Z,7.63
2023-04-18T12:42:28.900Z,7.55
2023-04-18T12:44:55.251Z,8.00
2023-04-18T12:47:21.645Z,6.90
2023-04-18T12:49:47.923Z,7.50
2023-04-18T12:52:14.737Z,8.50
2023-04-18T12:54:41.096Z,8.32
2023-04-18T12:57:07.495Z,8.20
2023-04-18T12:59:33.879Z,6.82
2023-04-18T13:02:00.330Z,9.07
2023-04-18T13:04:27.029Z,7.78
2023-04-18T13:06:53.539Z,8.57
2023-04-18T13:09:19.884Z,9.20
2023-04-18T13:11:47.735Z,8.85
2023-04-18T13:14:15.844Z,8.88
2023-04-18T13:16:43.878Z,9.20
2023-04-18T13:19:10.484Z,8.25
2023-04-18T13:21:36.756Z,8.95
2023-04-18T13:24:03.285Z,8.38
2023-04-18T13:26:29.662Z,9.60
2023-04-18T13:28:55.991Z,8.30
2023-04-18T13:31:22.330Z,9.00
2023-04-18T13:33:48.661Z,8.45
2023-04-18T13:36:15.078Z,7.95
2023-04-18T13:38:42.051Z,7.80
2023-04-18T13:41:12.881Z,9.18
2023-04-18T13:43:39.973Z,7.72
2023-04-18T13:46:06.424Z,8.52
2023-04-18T13:48:32.818Z,7.90
2023-04-18T13:50:59.234Z,8.80
2023-04-18T13:53:25.742Z,8.38
2023-04-18T13:55:52.038Z,8.38
2023-04-18T13:58:18.353Z,8.63
2023-04-18T14:00:44.715Z,8.40
2023-04-18T14:03:11.045Z,8.35
2023-04-18T14:05:37.564Z,7.07
2023-04-18T14:08:04.220Z,7.60
2023-04-18T14:10:31.152Z,7.88
2023-04-18T14:12:57.584Z,9.85
2023-04-18T14:15:23.938Z,8.85
2023-04-18T14:17:50.323Z,8.25
2023-04-18T14:20:16.777Z,8.65
2023-04-18T14:22:43.153Z,8.70
2023-04-18T14:25:09.806Z,8.97
2023-04-18T14:27:36.182Z,8.57
2023-04-18T14:30:02.921Z,8.18
2023-04-18T14:32:29.829Z,8.63
2023-04-18T14:34:56.221Z,8.35
2023-04-18T14:37:22.540Z,8.38
2023-04-18T14:39:48.848Z,7.95
2023-04-18T14:42:15.243Z,7.97
2023-04-18T14:44:41.581Z,7.90
2023-04-18T14:47:08.069Z,8.18
2023-04-18T14:49:34.489Z,7.90
2023-04-18T14:52:00.841Z,8.30
2023-04-18T14:54:27.161Z,8.40
2023-04-18T14:56:53.424Z,8.02
2023-04-18T14:59:20.183Z,7.65
2023-04-18T15:01:46.816Z,8.55
2023-04-18T15:04:13.486Z,8.50
2023-04-18T15:06:40.103Z,7.38
2023-04-18T15:09:06.546Z,8.13
2023-04-18T15:11:32.876Z,7.45
2023-04-18T15:13:59.217Z,8.27
2023-04-18T15:16:25.734Z,7.53
2023-04-18T15:18:52.200Z,8.15
2023-04-18T15:21:18.609Z,7.60
2023-04-18T15:23:44.912Z,8.02
2023-04-18T15:26:11.222Z,7.65
2023-04-18T15:28:37.924Z,7.90
2023-04-18T15:31:06.121Z,7.85
2023-04-18T15:33:33.514Z,7.95
2023-04-18T15:35:59.784Z,6.45
2023-04-18T15:38:26.081Z,7.90
2023-04-18T15:40:52.452Z,7.72
2023-04-18T15:43:18.794Z,7.28
2023-04-18T15:45:45.078Z,7.70
2023-04-18T15:48:11.402Z,7.65
2023-04-18T15:50:37.742Z,8.27
2023-04-18T15:53:04.004Z,7.30
2023-04-18T15:55:30.373Z,7.82
2023-04-18T15:57:56.827Z,9.75
2023-04-18T16:00:23.513Z,7.88
2023-04-18T16:02:52.900Z,6.53
2023-04-18T16:05:19.743Z,7.82
2023-04-18T16:07:46.472Z,7.82
2023-04-18T16:10:13.222Z,7.25
2023-04-18T16:12:39.746Z,7.40
2023-04-18T16:15:07.492Z,7.25
2023-04-18T16:17:34.415Z,8.18
2023-04-18T16:20:00.813Z,7.93
2023-04-18T16:22:27.136Z,7.75
2023-04-18T16:24:53.486Z,7.40
2023-04-18T16:27:19.929Z,6.03
2023-04-18T16:29:46.250Z,7.35
2023-04-18T16:32:12.860Z,7.50
2023-04-18T16:34:39.199Z,7.22
2023-04-18T16:37:05.493Z,6.60
2023-04-18T16:39:31.864Z,6.85
2023-04-18T16:41:58.192Z,6.32
2023-04-18T16:44:24.567Z,6.60
2023-04-18T16:46:51.010Z,6.75
2023-04-18T16:49:17.458Z,6.80
2023-04-18T16:51:43.824Z,7.03
2023-04-18T16:54:10.195Z,7.00
2023-04-18T16:56:36.483Z,6.00
2023-04-18T16:59:02.849Z,7.32
2023-04-18T17:01:29.581Z,7.10
2023-04-18T17:03:56.116Z,6.60
2023-04-18T17:06:22.589Z,6.03
2023-04-18T17:08:48.913Z,6.72
2023-04-18T17:11:15.229Z,7.63
2023-04-18T17:13:41.531Z,6.88
2023-04-18T17:16:08.013Z,6.90
2023-04-18T17:18:34.460Z,6.70
2023-04-18T17:21:01.145Z,6.78
2023-04-18T17:23:27.602Z,6.22
2023-04-18T17:25:53.930Z,6.50
2023-04-18T17:28:20.192Z,6.32
2023-04-18T17:30:46.648Z,6.82
2023-04-18T17:33:12.939Z,6.43
2023-04-18T17:35:42.274Z,6.38
2023-04-18T17:38:08.641Z,6.53
2023-04-18T17:40:34.994Z,6.03
2023-04-18T17:43:01.354Z,6.38
2023-04-18T17:45:27.732Z,5.72
2023-04-18T17:47:54.165Z,6.43
2023-04-18T17:50:20.598Z,6.10
2023-04-18T17:52:46.994Z,7.07
2023-04-18T17:55:13.559Z,6.57
2023-04-18T17:57:39.833Z,7.07
2023-04-18T18:00:06.686Z,7.25
2023-04-18T18:02:33.139Z,6.60
2023-04-18T18:04:59.483Z,6.22
2023-04-18T18:07:25.812Z,6.65
2023-04-18T18:09:52.424Z,6.28
2023-04-18T18:12:18.747Z,6.10
2023-04-18T18:14:45.015Z,5.75
2023-04-18T18:17:11.460Z,6.50
2023-04-18T18:19:37.858Z,6.05
2023-04-18T18:22:04.258Z,6.35
2023-04-18T18:24:30.708Z,7.15
2023-04-18T18:26:57.028Z,6.82
2023-04-18T18:29:23.517Z,5.15
2023-04-18T18:31:50.125Z,6.63
2023-04-18T18:34:16.853Z,5.72
2023-04-18T18:36:43.159Z,5.40
2023-04-18T18:39:09.535Z,6.13
2023-04-18T18:41:35.815Z,5.57
2023-04-18T18:44:02.237Z,6.03
2023-04-18T18:46:28.631Z,5.97
2023-04-18T18:48:55.425Z,5.13
2023-04-18T18:51:21.779Z,5.50
2023-04-18T18:53:48.064Z,5.13
2023-04-18T18:56:14.365Z,5.20
2023-04-18T18:58:40.681Z,5.65
2023-04-18T19:01:06.954Z,5.80
2023-04-18T19:03:33.407Z,6.20
2023-04-18T19:05:59.786Z,5.60
2023-04-18T19:08:26.498Z,5.80
2023-04-18T19:10:52.808Z,5.75
2023-04-18T19:13:22.003Z,5.47
2023-04-18T19:15:48.312Z,6.10
2023-04-18T19:18:14.720Z,5.40
2023-04-18T19:20:41.112Z,6.13
2023-04-18T19:23:07.687Z,6.57
2023-04-18T19:25:33.973Z,6.78
2023-04-18T19:28:00.254Z,6.40
2023-04-18T19:30:27.174Z,7.10
2023-04-18T19:32:53.698Z,6.78
2023-04-18T19:35:20.314Z,5.80
2023-04-18T19:37:46.687Z,6.97
2023-04-18T19:40:12.997Z,5.80
2023-04-18T19:42:39.392Z,6.83
2023-04-18T19:45:06.273Z,5.93
2023-04-18T19:47:32.616Z,6.07
2023-04-18T19:49:59.990Z,7.03
2023-04-18T19:52:26.525Z,5.80
2023-04-18T19:54:54.807Z,6.03
2023-04-18T19:57:21.792Z,7.05
2023-04-18T19:59:48.172Z,6.72
2023-04-18T20:02:14.655Z,5.95
2023-04-18T20:04:41.335Z,6.85
2023-04-18T20:07:07.656Z,5.77
2023-04-18T20:09:36.001Z,6.32
2023-04-18T20:12:02.275Z,6.43
2023-04-18T20:14:29.360Z,5.25
2023-04-18T20:16:56.466Z,5.50
2023-04-18T20:19:22.977Z,6.22
2023-04-18T20:21:49.342Z,5.93
2023-04-18T20:24:15.852Z,6.15
2023-04-18T20:26:42.132Z,5.57
2023-04-18T20:29:08.565Z,5.38
2023-04-18T20:31:34.950Z,5.68
2023-04-18T20:34:01.333Z,6.45
2023-04-18T20:36:27.821Z,5.47
2023-04-18T20:38:54.112Z,5.90
2023-04-18T20:41:20.483Z,6.40
2023-04-18T20:43:46.810Z,5.82
2023-04-18T20:46:13.148Z,6.00
2023-04-18T20:48:39.917Z,6.00
2023-04-18T20:51:06.288Z,5.22
2023-04-18T20:53:32.741Z,5.70
2023-04-18T20:56:01.320Z,5.95
2023-04-18T20:58:27.638Z,5.60
2023-04-18T21:00:54.018Z,4.90
2023-04-18T21:03:20.482Z,5.70
2023-04-18T21:05:46.805Z,5.45
2023-04-18T21:08:13.171Z,5.40
2023-04-18T21:10:39.491Z,4.97
2023-04-18T21:13:05.835Z,5.18
2023-04-18T21:15:32.184Z,5.30
2023-04-18T21:17:58.746Z,5.22
2023-04-18T21:20:25.108Z,5.05
2023-04-18T21:22:51.436Z,4.72
2023-04-18T21:25:17.889Z,4.50
2023-04-18T21:27:44.242Z,4.57
2023-04-18T21:30:10.811Z,5.15
2023-04-18T21:32:37.222Z,4.78
2023-04-18T21:35:03.667Z,4.38
2023-04-18T21:37:30.139Z,4.68
2023-04-18T21:39:56.483Z,4.85
2023-04-18T21:42:22.845Z,4.95
2023-04-18T21:44:49.165Z,4.22
2023-04-18T21:47:15.501Z,4.90
2023-04-18T21:49:57.089Z,4.82
2023-04-18T21:52:34.155Z,5.07
2023-04-18T21:55:04.628Z,5.00
2023-04-18T21:57:44.945Z,5.82
2023-04-18T22:00:13.156Z,4.88
2023-04-18T22:03:02.466Z,4.72
2023-04-18T22:05:39.834Z,4.88
2023-04-18T22:08:10.446Z,4.32
2023-04-18T22:10:38.697Z,4.70
2023-04-18T22:13:06.357Z,4.32
2023-04-18T22:16:02.040Z,4.93
2023-04-18T22:18:37.418Z,4.50
2023-04-18T22:21:10.404Z,4.90
2023-04-18T22:23:43.614Z,5.57
2023-04-18T22:26:16.004Z,5.15
2023-04-18T22:28:51.242Z,4.50
2023-04-18T22:31:43.475Z,4.53
2023-04-18T22:34:18.162Z,4.75
2023-04-18T22:40:19.415Z,4.72
2023-04-18T22:42:45.695Z,4.38
2023-04-18T22:45:12.059Z,4.30
2023-04-18T22:47:38.500Z,4.13
2023-04-18T22:50:06.527Z,4.35
2023-04-18T22:52:32.914Z,4.43
2023-04-18T22:54:59.219Z,4.55
2023-04-18T22:57:25.526Z,3.88
2023-04-18T22:59:51.830Z,4.07
2023-04-18T23:02:18.228Z,4.80
2023-04-18T23:04:44.661Z,4.35
2023-04-18T23:07:11.219Z,4.13
2023-04-18T23:09:37.617Z,4.03
2023-04-18T23:12:04.269Z,4.40
2023-04-18T23:14:30.581Z,4.28
2023-04-18T23:16:56.883Z,3.83
2023-04-18T23:19:23.235Z,4.13
2023-04-18T23:21:49.898Z,4.15
2023-04-18T23:24:16.372Z,4.60
2023-04-18T23:26:42.912Z,4.38
2023-04-18T23:29:09.291Z,4.47
2023-04-18T23:31:35.736Z,4.80
2023-04-18T23:34:02.079Z,4.60
2023-04-18T23:36:28.399Z,4.78
2023-04-18T23:38:54.711Z,4.75
2023-04-18T23:41:20.979Z,4.75
2023-04-18T23:43:47.252Z,4.78
2023-04-18T23:46:13.540Z,4.45
2023-04-18T23:48:40.157Z,4.68
2023-04-18T23:51:06.577Z,4.45
2023-04-18T23:53:32.922Z,4.53
2023-04-18T23:55:59.246Z,5.15
2023-04-18T23:58:25.608Z,4.90
